createdAt,value
2023-02-24T00:01:52.867Z,23.20
2023-02-24T00:04:21.990Z,23.20
2023-02-24T00:06:50.172Z,23.20
2023-02-24T00:09:20.401Z,23.20
2023-02-24T00:11:53.759Z,23.20
2023-02-24T00:14:22.649Z,23.20
2023-02-24T00:16:53.007Z,23.20
2023-02-24T00:19:23.554Z,23.20
2023-02-24T00:21:54.259Z,23.20
2023-02-24T00:24:22.791Z,23.20
2023-02-24T00:26:55.429Z,23.10
2023-02-24T00:29:25.166Z,23.10
2023-02-24T00:32:00.260Z,23.10
2023-02-24T00:34:29.675Z,23.10
2023-02-24T00:36:58.136Z,23.10
2023-02-24T00:39:30.669Z,23.10
2023-02-24T00:42:04.491Z,23.10
2023-02-24T00:44:33.983Z,23.10
2023-02-24T00:47:05.117Z,23.00
2023-02-24T00:49:35.957Z,23.00
2023-02-24T00:52:06.545Z,23.00
2023-02-24T00:54:37.300Z,23.00
2023-02-24T00:57:08.202Z,23.00
2023-02-24T00:59:37.099Z,23.00
2023-02-24T01:02:07.939Z,23.00
2023-02-24T01:04:38.057Z,23.00
2023-02-24T01:07:10.982Z,22.90
2023-02-24T01:09:41.496Z,22.90
2023-02-24T01:12:33.531Z,22.90
2023-02-24T01:15:05.000Z,22.90
2023-02-24T01:17:37.223Z,22.90
2023-02-24T01:20:16.005Z,22.90
2023-02-24T01:22:44.789Z,22.90
2023-02-24T01:25:13.085Z,22.90
2023-02-24T01:27:42.061Z,22.80
2023-02-24T01:30:15.697Z,22.80
2023-02-24T01:32:47.286Z,22.80
2023-02-24T01:35:15.932Z,22.80
2023-02-24T01:37:45.285Z,22.90
2023-02-24T01:40:20.504Z,22.90
2023-02-24T01:42:49.470Z,22.90
2023-02-24T01:45:26.481Z,22.90
2023-02-24T01:47:59.911Z,22.90
2023-02-24T01:50:29.103Z,22.90
2023-02-24T01:53:01.693Z,22.90
2023-02-24T01:55:34.026Z,22.90
2023-02-24T01:58:07.763Z,22.90
2023-02-24T02:00:45.182Z,22.90
2023-02-24T02:03:24.207Z,22.90
2023-02-24T02:05:56.096Z,22.90
2023-02-24T02:08:25.860Z,22.90
2023-02-24T02:10:59.793Z,22.90
2023-02-24T02:13:30.155Z,22.90
2023-02-24T02:16:15.098Z,22.90
2023-02-24T02:18:56.419Z,22.90
2023-02-24T02:22:00.204Z,22.80
2023-02-24T02:24:38.232Z,22.80
2023-02-24T02:27:24.705Z,22.80
2023-02-24T02:30:25.013Z,22.80
2023-02-24T02:33:35.148Z,22.80
2023-02-24T02:36:14.350Z,22.80
2023-02-24T02:38:52.351Z,22.80
2023-02-24T02:41:25.837Z,22.80
2023-02-24T02:44:03.789Z,22.80
2023-02-24T02:46:37.272Z,22.80
2023-02-24T02:49:13.505Z,22.80
2023-02-24T02:51:48.301Z,22.80
2023-02-24T02:54:23.410Z,22.80
2023-02-24T02:56:59.236Z,22.80
2023-02-24T02:59:30.315Z,22.80
2023-02-24T03:02:11.608Z,22.80
2023-02-24T03:04:43.453Z,22.80
2023-02-24T03:07:17.732Z,22.80
2023-02-24T03:09:50.532Z,22.80
2023-02-24T03:12:23.622Z,22.80
2023-02-24T03:14:59.104Z,22.80
2023-02-24T03:17:31.298Z,22.80
2023-02-24T03:20:12.266Z,22.80
2023-02-24T03:22:46.347Z,22.80
2023-02-24T03:25:16.814Z,22.80
2023-02-24T03:27:51.532Z,22.80
2023-02-24T03:30:27.177Z,22.80
2023-02-24T03:33:01.263Z,22.80
2023-02-24T03:36:01.831Z,22.80
2023-02-24T03:38:36.837Z,22.80
2023-02-24T03:41:11.170Z,22.70
2023-02-24T03:43:44.970Z,22.70
2023-02-24T03:46:15.021Z,22.70
2023-02-24T03:48:48.679Z,22.70
2023-02-24T03:51:19.313Z,22.70
2023-02-24T03:54:03.529Z,22.70
2023-02-24T03:56:45.979Z,22.70
2023-02-24T03:59:25.273Z,22.70
2023-02-24T04:02:00.150Z,22.80
2023-02-24T04:04:43.223Z,22.80
2023-02-24T04:07:30.990Z,22.80
2023-02-24T04:10:09.265Z,22.80
2023-02-24T04:12:43.297Z,22.80
2023-02-24T04:15:19.375Z,22.80
2023-02-24T04:17:50.136Z,22.70
2023-02-24T04:20:22.011Z,22.70
2023-02-24T04:23:00.649Z,22.70
2023-02-24T04:25:31.905Z,22.70
2023-02-24T04:28:01.865Z,22.70
2023-02-24T04:30:34.722Z,22.70
2023-02-24T04:33:03.833Z,22.70
2023-02-24T04:35:33.053Z,22.70
2023-02-24T04:38:02.179Z,22.70
2023-02-24T04:40:32.402Z,22.70
2023-02-24T04:43:00.525Z,22.70
2023-02-24T04:45:30.603Z,22.70
2023-02-24T04:48:02.081Z,22.70
2023-02-24T04:50:32.976Z,22.70
2023-02-24T04:53:03.800Z,22.70
2023-02-24T04:55:39.724Z,22.70
2023-02-24T04:58:11.097Z,22.70
2023-02-24T05:00:41.989Z,22.70
2023-02-24T05:03:12.563Z,22.70
2023-02-24T05:05:42.976Z,22.70
2023-02-24T05:08:12.189Z,22.70
2023-02-24T05:10:44.152Z,22.70
2023-02-24T05:13:14.977Z,22.70
2023-02-24T05:15:45.224Z,22.70
2023-02-24T05:18:17.142Z,22.70
2023-02-24T05:21:04.357Z,22.70
2023-02-24T05:23:34.969Z,22.70
2023-02-24T05:26:08.581Z,22.60
2023-02-24T05:28:37.865Z,22.60
2023-02-24T05:31:08.911Z,22.60
2023-02-24T05:33:37.790Z,22.60
2023-02-24T05:36:08.591Z,22.60
2023-02-24T05:38:38.256Z,22.70
2023-02-24T05:41:15.139Z,22.70
2023-02-24T05:43:44.684Z,22.70
2023-02-24T05:46:13.540Z,22.70
2023-02-24T05:48:41.807Z,22.70
2023-02-24T05:51:11.976Z,22.70
2023-02-24T05:53:42.386Z,22.70
2023-02-24T05:56:12.307Z,22.70
2023-02-24T05:58:40.614Z,22.70
2023-02-24T06:01:16.287Z,22.70
2023-02-24T06:03:47.750Z,22.70
2023-02-24T06:06:16.824Z,22.70
2023-02-24T06:08:50.301Z,22.70
2023-02-24T06:11:21.432Z,22.70
2023-02-24T06:13:49.862Z,22.70
2023-02-24T06:16:19.736Z,22.70
2023-02-24T06:18:50.416Z,22.70
2023-02-24T06:21:19.244Z,22.60
2023-02-24T06:23:47.457Z,22.60
2023-02-24T06:26:19.616Z,22.60
2023-02-24T06:28:49.910Z,22.60
2023-02-24T06:31:18.268Z,22.60
2023-02-24T06:33:46.486Z,22.60
2023-02-24T06:36:15.367Z,22.50
2023-02-24T06:38:44.028Z,22.50
2023-02-24T06:41:12.156Z,22.50
2023-02-24T06:43:41.174Z,22.50
2023-02-24T06:46:11.926Z,22.50
2023-02-24T06:48:40.662Z,22.50
2023-02-24T06:51:10.836Z,22.50
2023-02-24T06:53:43.152Z,22.50
2023-02-24T06:56:15.041Z,22.50
2023-02-24T06:58:47.310Z,22.40
2023-02-24T07:01:19.697Z,22.40
2023-02-24T07:04:03.384Z,22.40
2023-02-24T07:06:34.456Z,22.40
2023-02-24T07:09:05.281Z,22.30
2023-02-24T07:11:34.604Z,22.40
2023-02-24T07:14:05.713Z,22.40
2023-02-24T07:16:36.406Z,22.40
2023-02-24T07:19:11.148Z,22.40
2023-02-24T07:21:40.972Z,22.40
2023-02-24T07:24:09.833Z,22.40
2023-02-24T07:26:41.507Z,22.40
2023-02-24T07:29:11.365Z,22.40
2023-02-24T07:31:43.085Z,22.40
2023-02-24T07:34:14.969Z,22.40
2023-02-24T07:36:49.748Z,22.40
2023-02-24T07:39:18.934Z,22.40
2023-02-24T07:41:49.541Z,22.40
2023-02-24T07:44:19.776Z,22.30
2023-02-24T07:46:50.120Z,22.30
2023-02-24T07:49:20.683Z,22.30
2023-02-24T07:51:52.628Z,22.30
2023-02-24T07:54:22.093Z,22.20
2023-02-24T07:56:56.705Z,22.20
2023-02-24T07:59:27.396Z,22.20
2023-02-24T08:01:57.794Z,22.20
2023-02-24T08:04:28.560Z,22.20
2023-02-24T08:06:59.146Z,22.20
2023-02-24T08:10:08.046Z,22.20
2023-02-24T08:12:36.651Z,22.20
2023-02-24T08:15:17.198Z,22.10
2023-02-24T08:17:47.835Z,22.10
2023-02-24T08:20:29.786Z,22.20
2023-02-24T08:22:58.057Z,22.20
2023-02-24T08:25:35.609Z,22.20
2023-02-24T08:28:09.164Z,22.20
2023-02-24T08:30:39.991Z,22.30
2023-02-24T08:33:15.876Z,22.30
2023-02-24T08:35:45.304Z,22.40
2023-02-24T08:38:16.622Z,22.40
2023-02-24T08:40:54.717Z,22.50
2023-02-24T08:43:33.091Z,22.50
2023-02-24T08:46:05.934Z,22.60
2023-02-24T08:48:42.372Z,22.60
2023-02-24T08:51:15.833Z,22.60
2023-02-24T08:53:44.409Z,22.60
2023-02-24T08:56:15.017Z,22.70
2023-02-24T08:58:47.494Z,22.70
2023-02-24T09:01:24.650Z,22.70
2023-02-24T09:03:56.304Z,22.70
2023-02-24T09:06:35.279Z,22.70
2023-02-24T09:09:18.996Z,22.70
2023-02-24T09:11:49.398Z,22.70
2023-02-24T09:14:27.328Z,22.70
2023-02-24T09:17:05.512Z,22.80
2023-02-24T09:19:55.949Z,22.80
2023-02-24T09:22:32.700Z,22.80
2023-02-24T09:25:24.004Z,22.90
2023-02-24T09:27:55.225Z,22.90
2023-02-24T09:30:53.509Z,22.90
2023-02-24T09:33:24.721Z,23.00
2023-02-24T09:36:03.281Z,23.00
2023-02-24T09:38:49.286Z,23.00
2023-02-24T09:41:34.082Z,23.00
2023-02-24T09:44:09.182Z,23.00
2023-02-24T09:46:54.106Z,23.00
2023-02-24T09:49:25.481Z,23.00
2023-02-24T09:52:00.670Z,23.00
2023-02-24T09:54:35.581Z,23.00
2023-02-24T09:57:09.302Z,23.00
2023-02-24T10:00:01.165Z,23.00
2023-02-24T10:02:45.200Z,23.00
2023-02-24T10:05:27.292Z,23.00
2023-02-24T10:07:59.172Z,23.00
2023-02-24T10:10:35.791Z,23.00
2023-02-24T10:13:14.861Z,23.00
2023-02-24T10:15:59.054Z,23.00
2023-02-24T10:18:33.655Z,23.10
2023-02-24T10:21:16.718Z,23.10
2023-02-24T10:24:05.669Z,23.10
2023-02-24T10:26:57.925Z,23.10
2023-02-24T10:29:39.065Z,23.10
2023-02-24T10:32:24.588Z,23.10
2023-02-24T10:34:53.249Z,23.10
2023-02-24T10:37:28.806Z,23.10
2023-02-24T10:40:01.047Z,23.10
2023-02-24T10:42:31.741Z,23.10
2023-02-24T10:45:17.956Z,23.10
2023-02-24T10:47:56.563Z,23.10
2023-02-24T10:50:31.950Z,23.10
2023-02-24T10:53:20.624Z,23.10
2023-02-24T10:56:14.750Z,23.00
2023-02-24T10:58:56.518Z,23.00
2023-02-24T11:01:40.798Z,23.00
2023-02-24T11:04:33.346Z,23.00
2023-02-24T11:07:10.338Z,23.00
2023-02-24T11:09:52.343Z,23.00
2023-02-24T11:12:42.624Z,22.90
2023-02-24T11:15:39.303Z,22.90
2023-02-24T11:18:08.801Z,22.90
2023-02-24T11:20:48.895Z,22.90
2023-02-24T11:23:20.632Z,22.90
2023-02-24T11:25:51.215Z,22.90
2023-02-24T11:28:40.502Z,22.90
2023-02-24T11:31:21.934Z,22.90
2023-02-24T11:34:01.608Z,22.90
2023-02-24T11:36:38.337Z,22.90
2023-02-24T11:39:22.318Z,23.00
2023-02-24T11:41:53.229Z,23.00
2023-02-24T11:44:29.093Z,23.10
2023-02-24T11:47:00.682Z,23.10
2023-02-24T11:49:32.318Z,23.10
2023-02-24T11:52:04.672Z,23.10
2023-02-24T11:54:40.152Z,23.10
2023-02-24T11:57:17.264Z,23.20
2023-02-24T11:59:55.225Z,23.30
2023-02-24T12:02:35.734Z,23.30
2023-02-24T12:05:13.644Z,23.40
2023-02-24T12:07:45.653Z,23.40
2023-02-24T12:10:21.146Z,23.40
2023-02-24T12:12:55.938Z,23.40
2023-02-24T12:15:30.806Z,23.40
2023-02-24T12:18:06.246Z,23.40
2023-02-24T12:20:40.474Z,23.50
2023-02-24T12:23:18.048Z,23.50
2023-02-24T12:26:16.438Z,23.50
2023-02-24T12:29:16.182Z,23.50
2023-02-24T12:31:54.401Z,23.50
2023-02-24T12:34:31.629Z,23.60
2023-02-24T12:37:20.888Z,23.70
2023-02-24T12:40:00.174Z,23.80
2023-02-24T12:42:38.203Z,23.80
2023-02-24T12:45:17.547Z,23.90
2023-02-24T12:48:03.181Z,23.90
2023-02-24T12:50:43.404Z,23.90
2023-02-24T12:53:21.585Z,23.90
2023-02-24T12:55:56.500Z,23.90
2023-02-24T12:58:28.663Z,23.90
2023-02-24T13:01:07.832Z,23.90
2023-02-24T13:03:51.338Z,23.90
2023-02-24T13:06:27.008Z,23.80
2023-02-24T13:09:01.049Z,23.80
2023-02-24T13:11:39.577Z,23.90
2023-02-24T13:14:15.292Z,23.90
2023-02-24T13:16:43.644Z,23.90
2023-02-24T13:19:22.577Z,23.90
2023-02-24T13:21:58.358Z,23.80
2023-02-24T13:24:27.594Z,23.80
2023-02-24T13:27:06.843Z,23.80
2023-02-24T13:29:45.300Z,23.80
2023-02-24T13:32:31.947Z,23.70
2023-02-24T13:35:03.629Z,23.70
2023-02-24T13:37:34.797Z,23.70
2023-02-24T13:40:24.110Z,23.70
2023-02-24T13:43:02.226Z,23.60
2023-02-24T13:45:31.537Z,23.60
2023-02-24T13:48:22.879Z,23.60
2023-02-24T13:51:09.808Z,23.60
2023-02-24T13:53:58.801Z,23.50
2023-02-24T13:56:38.191Z,23.50
2023-02-24T13:59:24.612Z,23.50
2023-02-24T14:01:58.781Z,23.50
2023-02-24T14:04:29.725Z,23.50
2023-02-24T14:07:03.203Z,23.50
2023-02-24T14:09:36.197Z,23.50
2023-02-24T14:12:08.253Z,23.40
2023-02-24T14:14:36.536Z,23.40
2023-02-24T14:17:04.671Z,23.40
2023-02-24T14:19:32.799Z,23.40
2023-02-24T14:22:02.321Z,23.40
2023-02-24T14:24:30.618Z,23.40
2023-02-24T14:27:00.351Z,23.30
2023-02-24T14:29:31.925Z,23.30
2023-02-24T14:32:01.116Z,23.30
2023-02-24T14:34:32.238Z,23.30
2023-02-24T14:37:04.291Z,23.30
2023-02-24T14:39:35.102Z,23.20
2023-02-24T14:42:13.452Z,23.20
2023-02-24T14:44:43.388Z,23.20
2023-02-24T14:47:14.336Z,23.20
2023-02-24T14:49:42.845Z,23.20
2023-02-24T14:52:19.978Z,23.10
2023-02-24T14:54:52.442Z,23.10
2023-02-24T14:57:25.548Z,23.10
2023-02-24T14:59:57.364Z,23.10
2023-02-24T15:02:32.427Z,23.10
2023-02-24T15:05:01.321Z,23.10
2023-02-24T15:07:41.049Z,23.20
2023-02-24T15:10:21.149Z,23.20
2023-02-24T15:12:54.747Z,23.20
2023-02-24T15:15:26.957Z,23.30
2023-02-24T15:17:57.688Z,23.30
2023-02-24T15:20:32.093Z,23.30
2023-02-24T15:23:01.911Z,23.30
2023-02-24T15:25:42.498Z,23.30
2023-02-24T15:28:25.719Z,23.40
2023-02-24T15:31:01.718Z,23.40
2023-02-24T15:33:35.279Z,23.40
2023-02-24T15:36:09.747Z,23.40
2023-02-24T15:38:42.976Z,23.40
2023-02-24T15:41:12.932Z,23.40
2023-02-24T15:43:48.519Z,23.50
2023-02-24T15:46:26.536Z,23.40
2023-02-24T15:48:57.479Z,23.50
2023-02-24T15:51:33.809Z,23.50
2023-02-24T15:54:05.969Z,23.40
2023-02-24T15:56:36.109Z,23.40
2023-02-24T15:59:06.039Z,23.40
2023-02-24T16:01:35.042Z,23.40
2023-02-24T16:04:05.723Z,23.40
2023-02-24T16:06:36.092Z,23.30
2023-02-24T16:09:06.164Z,23.30
2023-02-24T16:11:39.613Z,23.30
2023-02-24T16:14:10.323Z,23.30
2023-02-24T16:16:38.962Z,23.30
2023-02-24T16:19:07.295Z,23.30
2023-02-24T16:21:36.143Z,23.30
2023-02-24T16:24:05.891Z,23.40
2023-02-24T16:26:37.717Z,23.40
2023-02-24T16:29:11.538Z,23.30
2023-02-24T16:31:40.594Z,23.30
2023-02-24T16:34:09.304Z,23.30
2023-02-24T16:36:37.424Z,23.30
2023-02-24T16:39:07.045Z,23.30
2023-02-24T16:41:35.153Z,23.30
2023-02-24T16:44:03.928Z,23.30
2023-02-24T16:46:37.687Z,23.20
2023-02-24T16:49:09.280Z,23.30
2023-02-24T16:51:39.072Z,23.20
2023-02-24T16:54:08.726Z,23.20
2023-02-24T16:56:37.897Z,23.20
2023-02-24T16:59:05.995Z,23.10
2023-02-24T17:01:34.438Z,23.10
2023-02-24T17:04:04.968Z,23.10
2023-02-24T17:06:33.715Z,23.10
2023-02-24T17:09:02.209Z,23.10
2023-02-24T17:11:31.887Z,23.10
2023-02-24T17:14:00.064Z,23.10
2023-02-24T17:16:28.257Z,23.10
2023-02-24T17:18:56.422Z,23.10
2023-02-24T17:21:24.821Z,23.10
2023-02-24T17:23:52.981Z,23.10
2023-02-24T17:26:21.423Z,23.10
2023-02-24T17:28:51.257Z,23.00
2023-02-24T17:31:19.526Z,23.00
2023-02-24T17:33:47.690Z,23.00
2023-02-24T17:36:16.112Z,23.00
2023-02-24T17:38:44.190Z,23.00
2023-02-24T17:41:12.331Z,23.00
2023-02-24T17:43:40.455Z,23.00
2023-02-24T17:46:09.905Z,23.00
2023-02-24T17:48:38.038Z,23.00
2023-02-24T17:51:06.479Z,23.00
2023-02-24T17:53:34.618Z,23.00
2023-02-24T17:56:03.831Z,23.00
2023-02-24T17:58:32.930Z,23.00
2023-02-24T18:01:02.019Z,23.00
2023-02-24T18:03:32.118Z,23.00
2023-02-24T18:06:01.017Z,23.00
2023-02-24T18:08:30.440Z,23.10
2023-02-24T18:10:59.909Z,23.10
2023-02-24T18:13:28.814Z,23.10
2023-02-24T18:15:57.523Z,23.10
2023-02-24T18:18:26.107Z,23.10
2023-02-24T18:20:58.624Z,23.10
2023-02-24T18:23:26.817Z,23.10
2023-02-24T18:25:54.934Z,23.10
2023-02-24T18:28:23.044Z,23.10
2023-02-24T18:30:51.361Z,23.10
2023-02-24T18:33:19.788Z,23.10
2023-02-24T18:35:47.943Z,23.10
2023-02-24T18:38:17.833Z,23.10
2023-02-24T18:40:45.925Z,23.10
2023-02-24T18:43:14.043Z,23.10
2023-02-24T18:45:42.140Z,23.10
2023-02-24T18:48:10.446Z,23.00
2023-02-24T18:50:39.122Z,23.00
2023-02-24T18:53:07.208Z,23.00
2023-02-24T18:55:37.491Z,23.00
2023-02-24T18:58:05.585Z,23.00
2023-02-24T19:00:33.683Z,23.00
2023-02-24T19:03:01.877Z,22.90
2023-02-24T19:05:37.872Z,22.90
2023-02-24T19:08:06.475Z,22.90
2023-02-24T19:10:34.582Z,22.90
2023-02-24T19:13:05.438Z,22.90
2023-02-24T19:15:36.506Z,22.90
2023-02-24T19:18:05.049Z,22.90
2023-02-24T19:20:33.704Z,22.90
2023-02-24T19:23:01.903Z,22.90
2023-02-24T19:25:30.142Z,22.90
2023-02-24T19:27:58.240Z,22.90
2023-02-24T19:30:27.761Z,22.90
2023-02-24T19:32:56.034Z,22.90
2023-02-24T19:35:24.305Z,22.90
2023-02-24T19:37:52.375Z,22.90
2023-02-24T19:40:20.775Z,22.90
2023-02-24T19:42:51.679Z,23.00
2023-02-24T19:45:20.387Z,23.00
2023-02-24T19:47:50.681Z,23.00
2023-02-24T19:50:19.196Z,23.00
2023-02-24T19:52:47.816Z,23.00
2023-02-24T19:55:15.910Z,23.00
2023-02-24T19:57:44.057Z,22.90
2023-02-24T20:00:13.345Z,22.90
2023-02-24T20:02:41.788Z,22.90
2023-02-24T20:05:11.584Z,22.90
2023-02-24T20:07:39.741Z,22.90
2023-02-24T20:10:08.735Z,22.90
2023-02-24T20:12:36.985Z,22.90
2023-02-24T20:15:05.435Z,22.90
2023-02-24T20:17:35.489Z,22.80
2023-02-24T20:20:03.732Z,22.80
2023-02-24T20:22:33.286Z,22.80
2023-02-24T20:25:01.475Z,22.80
2023-02-24T20:27:29.545Z,22.80
2023-02-24T20:29:58.798Z,22.80
2023-02-24T20:32:27.391Z,22.80
2023-02-24T20:34:56.078Z,22.80
2023-02-24T20:37:24.426Z,22.80
2023-02-24T20:39:54.545Z,22.80
2023-02-24T20:42:22.803Z,22.90
2023-02-24T20:44:51.218Z,22.90
2023-02-24T20:47:19.616Z,22.90
2023-02-24T20:49:47.988Z,22.90
2023-02-24T20:52:16.531Z,22.90
2023-02-24T20:54:45.864Z,22.90
2023-02-24T20:57:15.547Z,22.90
2023-02-24T20:59:49.277Z,22.90
2023-02-24T21:02:20.245Z,22.90
2023-02-24T21:04:48.473Z,22.90
2023-02-24T21:07:16.756Z,22.90
2023-02-24T21:09:45.145Z,22.90
2023-02-24T21:12:14.998Z,22.90
2023-02-24T21:14:43.713Z,22.90
2023-02-24T21:17:13.062Z,22.90
2023-02-24T21:19:41.453Z,22.90
2023-02-24T21:22:09.891Z,23.00
2023-02-24T21:24:38.105Z,22.90
2023-02-24T21:27:06.792Z,22.90
2023-02-24T21:29:36.624Z,22.90
2023-02-24T21:32:05.047Z,22.90
2023-02-24T21:34:33.667Z,22.90
2023-02-24T21:37:02.459Z,22.90
2023-02-24T21:39:30.758Z,22.90
2023-02-24T21:41:59.198Z,22.90
2023-02-24T21:44:27.606Z,22.80
2023-02-24T21:46:57.350Z,22.80
2023-02-24T21:49:26.522Z,22.80
2023-02-24T21:51:55.202Z,22.80
2023-02-24T21:54:23.546Z,22.80
2023-02-24T21:56:51.789Z,22.80
2023-02-24T21:59:20.421Z,22.80
2023-02-24T22:01:48.808Z,22.80
2023-02-24T22:04:20.279Z,22.80
2023-02-24T22:06:48.832Z,22.70
2023-02-24T22:09:20.218Z,22.70
2023-02-24T22:11:50.302Z,22.70
2023-02-24T22:14:20.568Z,22.70
2023-02-24T22:16:49.304Z,22.70
2023-02-24T22:19:20.203Z,22.70
2023-02-24T22:21:48.598Z,22.70
2023-02-24T22:24:19.164Z,22.70
2023-02-24T22:26:47.576Z,22.70
2023-02-24T22:29:15.931Z,22.80
2023-02-24T22:31:47.620Z,22.80
2023-02-24T22:34:18.864Z,22.80
2023-02-24T22:36:47.225Z,22.80
2023-02-24T22:39:17.069Z,22.80
2023-02-24T22:41:46.846Z,22.80
2023-02-24T22:44:19.133Z,22.80
2023-02-24T22:46:47.718Z,22.80
2023-02-24T22:49:15.931Z,22.80
2023-02-24T22:51:45.658Z,22.80
2023-02-24T22:54:13.820Z,22.80
2023-02-24T22:56:41.994Z,22.80
2023-02-24T22:59:11.285Z,22.80
2023-02-24T23:01:42.646Z,22.80
2023-02-24T23:04:15.954Z,22.80
2023-02-24T23:06:47.504Z,22.70
2023-02-24T23:09:19.728Z,22.70
2023-02-24T23:11:48.645Z,22.70
2023-02-24T23:14:18.225Z,22.70
2023-02-24T23:16:48.279Z,22.70
2023-02-24T23:19:18.556Z,22.70
2023-02-24T23:21:50.002Z,22.70
2023-02-24T23:24:19.825Z,22.70
2023-02-24T23:26:51.260Z,22.70
2023-02-24T23:29:19.874Z,22.70
2023-02-24T23:31:48.647Z,22.70
2023-02-24T23:34:16.920Z,22.80
2023-02-24T23:36:48.072Z,22.80
2023-02-24T23:39:18.283Z,22.80
2023-02-24T23:41:46.473Z,22.80
2023-02-24T23:44:14.613Z,22.80
2023-02-24T23:46:42.802Z,22.80
2023-02-24T23:49:10.975Z,22.80
2023-02-24T23:51:48.125Z,22.80
2023-02-24T23:54:18.623Z,22.80
2023-02-24T23:56:46.918Z,22.80
2023-02-24T23:59:16.039Z,22.90
